createdAt,value
2023-04-11T00:03:00.080Z,61.35
2023-04-11T00:08:01.915Z,62.42
2023-04-11T00:13:03.520Z,62.30
2023-04-11T00:18:06.655Z,63.90
2023-04-11T00:23:08.800Z,65.00
2023-04-11T00:28:10.810Z,57.15
2023-04-11T00:33:12.324Z,63.60
2023-04-11T00:38:13.791Z,64.90
2023-04-11T00:43:15.427Z,62.10
2023-04-11T00:48:17.677Z,62.92
2023-04-11T00:53:19.134Z,58.15
2023-04-11T00:58:20.644Z,57.20
2023-04-11T01:03:22.945Z,58.58
2023-04-11T01:08:24.865Z,58.88
2023-04-11T01:13:26.508Z,58.50
2023-04-11T01:18:28.315Z,62.30
2023-04-11T01:23:29.901Z,58.70
2023-04-11T01:28:31.367Z,57.53
2023-04-11T01:33:32.882Z,56.53
2023-04-11T01:38:34.323Z,56.58
2023-04-11T01:43:36.020Z,59.58
2023-04-11T01:48:38.246Z,57.42
2023-04-11T01:53:39.857Z,56.20
2023-04-11T01:58:41.786Z,58.28
2023-04-11T02:03:43.324Z,60.38
2023-04-11T02:08:44.999Z,56.88
2023-04-11T02:13:46.593Z,56.83
2023-04-11T02:18:48.043Z,58.58
2023-04-11T02:23:49.472Z,55.17
2023-04-11T02:28:50.882Z,56.92
2023-04-11T02:33:52.376Z,54.33
2023-04-11T02:38:54.416Z,51.75
2023-04-11T02:43:56.044Z,53.35
2023-04-11T02:48:57.831Z,49.28
2023-04-11T02:53:59.536Z,49.45
2023-04-11T02:59:01.015Z,52.00
2023-04-11T03:04:02.589Z,49.40
2023-04-11T03:09:04.186Z,51.22
2023-04-11T03:14:05.642Z,47.33
2023-04-11T03:19:07.081Z,50.38
2023-04-11T03:24:08.658Z,49.88
2023-04-11T03:29:10.320Z,52.00
2023-04-11T03:34:11.807Z,54.03
2023-04-11T03:39:13.211Z,63.80
2023-04-11T03:44:14.758Z,58.95
2023-04-11T03:49:16.157Z,53.97
2023-04-11T03:54:17.956Z,55.00
2023-04-11T03:59:19.362Z,60.08
2023-04-11T04:04:21.040Z,53.90
2023-04-11T04:09:24.053Z,53.03
2023-04-11T04:14:25.539Z,52.05
2023-04-11T04:19:26.987Z,55.65
2023-04-11T04:24:29.546Z,60.55
2023-04-11T04:29:37.975Z,52.40
2023-04-11T04:34:49.317Z,51.42
2023-04-11T04:39:55.263Z,52.50
2023-04-11T04:44:57.129Z,54.58
2023-04-11T04:49:58.925Z,50.80
2023-04-11T04:55:01.245Z,54.45
2023-04-11T05:00:06.788Z,51.92
2023-04-11T05:05:09.526Z,49.15
2023-04-11T05:10:10.978Z,48.72
2023-04-11T05:15:12.603Z,48.83
2023-04-11T05:20:15.481Z,47.65
2023-04-11T05:25:17.966Z,51.03
2023-04-11T05:30:19.454Z,52.05
2023-04-11T05:35:21.442Z,45.22
2023-04-11T05:40:22.904Z,49.58
2023-04-11T05:45:24.327Z,52.10
2023-04-11T05:50:26.159Z,52.95
2023-04-11T05:55:27.674Z,45.30
2023-04-11T06:00:31.133Z,48.88
2023-04-11T06:05:33.034Z,44.80
2023-04-11T06:10:34.943Z,48.83
2023-04-11T06:15:36.424Z,46.38
2023-04-11T06:20:37.903Z,47.40
2023-04-11T06:25:39.338Z,48.05
2023-04-11T06:30:41.440Z,44.13
2023-04-11T06:35:42.848Z,44.50
2023-04-11T06:40:44.264Z,45.38
2023-04-11T06:45:47.020Z,43.53
2023-04-11T06:50:48.555Z,45.15
2023-04-11T06:55:50.016Z,42.50
2023-04-11T07:00:51.500Z,44.17
2023-04-11T07:05:53.129Z,40.75
2023-04-11T07:10:54.558Z,46.78
2023-04-11T07:15:56.036Z,42.63
2023-04-11T07:20:57.583Z,44.15
2023-04-11T07:25:59.005Z,42.95
2023-04-11T07:31:00.676Z,45.80
2023-04-11T07:36:02.226Z,46.97
2023-04-11T07:41:05.221Z,46.55
2023-04-11T07:46:06.902Z,49.78
2023-04-11T07:51:08.520Z,45.97
2023-04-11T07:56:10.751Z,46.25
2023-04-11T08:01:23.903Z,47.95
2023-04-11T08:06:26.486Z,48.25
2023-04-11T08:11:27.938Z,48.88
2023-04-11T08:16:29.450Z,41.53
2023-04-11T08:21:31.269Z,45.35
2023-04-11T08:26:32.705Z,45.13
2023-04-11T08:31:34.132Z,49.90
2023-04-11T08:36:35.638Z,47.60
2023-04-11T08:41:38.603Z,46.50
2023-04-11T08:46:44.264Z,46.92
2023-04-11T08:51:47.067Z,45.40
2023-04-11T08:56:48.480Z,45.97
2023-04-11T09:01:51.098Z,44.30
2023-04-11T09:07:00.440Z,42.90
2023-04-11T09:12:03.926Z,39.70
2023-04-11T09:17:17.085Z,40.42
2023-04-11T09:22:18.623Z,41.72
2023-04-11T09:27:24.395Z,39.78
2023-04-11T09:32:31.072Z,41.22
2023-04-11T09:37:55.920Z,36.08
2023-04-11T09:42:59.646Z,41.83
2023-04-11T09:48:01.673Z,40.35
2023-04-11T09:53:03.637Z,36.33
2023-04-11T09:58:05.889Z,34.15
2023-04-11T10:03:07.492Z,29.20
2023-04-11T10:08:17.282Z,29.33
2023-04-11T10:13:36.780Z,29.15
2023-04-11T10:18:58.938Z,27.83
2023-04-11T10:24:29.632Z,23.55
2023-04-11T10:29:33.178Z,26.40
2023-04-11T10:34:38.778Z,25.90
2023-04-11T10:39:57.779Z,23.13
2023-04-11T10:50:26.607Z,21.85
2023-04-11T10:55:29.593Z,24.00
2023-04-11T11:00:54.203Z,17.42
2023-04-11T11:06:04.183Z,16.85
2023-04-11T11:11:07.346Z,19.73
2023-04-11T11:16:11.070Z,20.25
2023-04-11T11:21:20.665Z,19.13
2023-04-11T11:26:44.371Z,23.13
2023-04-11T11:31:47.663Z,21.20
2023-04-11T11:36:49.293Z,22.30
2023-04-11T11:41:51.596Z,11.27
2023-04-11T11:47:04.745Z,13.52
2023-04-11T11:52:06.173Z,7.95
2023-04-11T11:57:07.726Z,5.60
2023-04-11T12:02:09.325Z,6.65
2023-04-11T12:07:11.741Z,4.70
2023-04-11T12:12:15.990Z,5.50
2023-04-11T12:17:17.439Z,7.10
2023-04-11T12:22:18.897Z,3.53
2023-04-11T12:27:20.386Z,4.03
2023-04-11T12:32:23.264Z,3.40
2023-04-11T12:37:24.715Z,4.90
2023-04-11T12:42:27.420Z,3.78
2023-04-11T12:47:29.050Z,3.67
2023-04-11T12:52:30.884Z,4.93
2023-04-11T12:57:32.320Z,4.50
2023-04-11T13:02:42.142Z,5.28
2023-04-11T13:07:45.361Z,7.00
2023-04-11T13:12:48.458Z,6.45
2023-04-11T13:17:50.269Z,7.35
2023-04-11T13:22:51.960Z,10.15
2023-04-11T13:27:53.434Z,6.47
2023-04-11T13:32:54.948Z,8.27
2023-04-11T13:37:56.397Z,8.10
2023-04-11T13:42:57.830Z,8.65
2023-04-11T13:47:59.446Z,7.05
2023-04-11T13:53:01.271Z,7.63
2023-04-11T13:58:02.756Z,4.18
2023-04-11T14:03:04.481Z,4.38
2023-04-11T14:08:06.594Z,4.43
2023-04-11T14:13:11.296Z,3.58
2023-04-11T14:18:13.017Z,6.07
2023-04-11T14:23:16.525Z,5.18
2023-04-11T14:28:18.390Z,5.32
2023-04-11T14:33:19.848Z,4.75
2023-04-11T14:38:21.276Z,7.15
2023-04-11T14:43:22.744Z,5.75
2023-04-11T14:48:27.596Z,4.72
2023-04-11T14:53:29.045Z,5.93
2023-04-11T14:58:30.775Z,5.72
2023-04-11T15:03:32.556Z,4.95
2023-04-11T15:08:34.178Z,10.20
2023-04-11T15:13:35.764Z,5.72
2023-04-11T15:18:37.192Z,9.60
2023-04-11T15:23:38.610Z,14.77
2023-04-11T15:28:40.384Z,41.85
2023-04-11T15:33:41.831Z,19.70
2023-04-11T15:38:45.060Z,6.93
2023-04-11T15:43:46.870Z,6.07
2023-04-11T15:48:48.348Z,5.15
2023-04-11T15:53:50.416Z,5.20
2023-04-11T15:58:51.840Z,4.85
2023-04-11T16:03:53.538Z,5.60
2023-04-11T16:08:55.418Z,7.18
2023-04-11T16:13:57.396Z,8.32
2023-04-11T16:18:59.118Z,6.13
2023-04-11T16:24:00.868Z,4.97
2023-04-11T16:29:03.371Z,7.10
2023-04-11T16:34:04.783Z,7.28
2023-04-11T16:39:06.353Z,6.18
2023-04-11T16:44:11.408Z,5.57
2023-04-11T16:49:13.116Z,5.63
2023-04-11T16:54:15.060Z,3.35
2023-04-11T16:59:16.612Z,3.53
2023-04-11T17:04:18.209Z,4.90
2023-04-11T17:09:19.699Z,5.00
2023-04-11T17:14:21.199Z,6.50
2023-04-11T17:19:23.734Z,6.88
2023-04-11T17:24:25.972Z,5.38
2023-04-11T17:29:28.400Z,6.25
2023-04-11T17:34:29.899Z,6.50
2023-04-11T17:39:31.380Z,3.53
2023-04-11T17:44:32.907Z,6.00
2023-04-11T17:49:34.382Z,6.82
2023-04-11T17:54:36.439Z,5.97
2023-04-11T17:59:37.875Z,7.13
2023-04-11T18:04:39.445Z,7.18
2023-04-11T18:09:42.325Z,6.95
2023-04-11T18:14:43.773Z,7.30
2023-04-11T18:19:45.350Z,5.10
2023-04-11T18:24:46.811Z,2.72
2023-04-11T18:29:51.674Z,4.35
2023-04-11T18:34:53.451Z,2.15
2023-04-11T18:39:55.116Z,3.53
2023-04-11T18:44:58.538Z,1.15
2023-04-11T18:50:00.112Z,2.80
2023-04-11T18:55:01.724Z,1.48
2023-04-11T19:00:17.363Z,2.80
2023-04-11T19:05:20.652Z,1.98
2023-04-11T19:10:22.341Z,2.40
2023-04-11T19:15:23.844Z,3.97
2023-04-11T19:20:26.743Z,7.53
2023-04-11T19:25:28.462Z,5.03
2023-04-11T19:30:29.949Z,4.63
2023-04-11T19:35:31.383Z,7.40
2023-04-11T19:40:34.479Z,5.32
2023-04-11T19:45:36.209Z,6.55
2023-04-11T19:50:37.896Z,4.65
2023-04-11T19:55:40.020Z,6.97
2023-04-11T20:00:41.866Z,8.10
2023-04-11T20:05:44.181Z,7.47
2023-04-11T20:10:45.608Z,7.45
2023-04-11T20:15:47.135Z,5.28
2023-04-11T20:20:48.541Z,6.82
2023-04-11T20:25:49.955Z,7.72
2023-04-11T20:30:51.986Z,10.23
2023-04-11T20:35:59.094Z,7.03
2023-04-11T20:41:03.724Z,9.15
2023-04-11T20:46:08.357Z,10.05
2023-04-11T20:51:09.868Z,9.90
2023-04-11T20:56:11.842Z,11.15
2023-04-11T21:01:13.587Z,9.90
2023-04-11T21:06:15.645Z,8.40
2023-04-11T21:11:17.103Z,9.48
2023-04-11T21:16:18.571Z,9.90
2023-04-11T21:21:20.058Z,9.30
2023-04-11T21:26:21.654Z,8.15
2023-04-11T21:31:23.093Z,9.80
2023-04-11T21:36:24.537Z,11.18
2023-04-11T21:41:26.013Z,12.90
2023-04-11T21:46:27.650Z,9.38
2023-04-11T21:51:29.098Z,11.35
2023-04-11T21:56:30.594Z,8.35
2023-04-11T22:01:32.115Z,9.40
2023-04-11T22:06:33.560Z,8.15
2023-04-11T22:11:34.995Z,9.88
2023-04-11T22:16:36.493Z,13.32
2023-04-11T22:21:38.275Z,13.25
2023-04-11T22:26:42.773Z,10.48
2023-04-11T22:31:45.291Z,9.25
2023-04-11T22:36:46.747Z,8.52
2023-04-11T22:41:50.518Z,8.75
2023-04-11T22:46:59.899Z,9.65
2023-04-11T22:57:03.664Z,10.55
2023-04-11T23:02:05.650Z,7.10
2023-04-11T23:07:07.123Z,8.88
2023-04-11T23:12:09.090Z,9.57
2023-04-11T23:17:10.561Z,9.70
2023-04-11T23:22:12.424Z,7.70
2023-04-11T23:27:14.083Z,6.43
2023-04-11T23:32:15.693Z,7.45
2023-04-11T23:37:17.859Z,7.75
2023-04-11T23:42:19.266Z,6.57
2023-04-11T23:47:20.836Z,7.38
2023-04-11T23:52:22.418Z,6.45
2023-04-11T23:57:24.137Z,7.68
